sensor_id;sensor_type;location;lat;lon;timestamp;temperature;humidity
39427;DHT22;25938;48.470;1.486;2022-12-07T18:19:57;12.90;66.30
39427;DHT22;25938;48.470;1.486;2022-12-07T18:22:23;12.90;57.90
39427;DHT22;25938;48.470;1.486;2022-12-07T18:24:49;12.20;59.20
39427;DHT22;25938;48.470;1.486;2022-12-07T18:27:15;11.80;60.00
39427;DHT22;25938;48.470;1.486;2022-12-07T18:29:41;11.70;60.90
39427;DHT22;25938;48.470;1.486;2022-12-07T18:32:07;11.50;61.50
39427;DHT22;25938;48.470;1.486;2022-12-07T18:34:32;11.60;61.80
39427;DHT22;25938;48.470;1.486;2022-12-07T18:36:58;11.60;61.80
39427;DHT22;25938;48.470;1.486;2022-12-07T18:39:23;11.70;61.90
39427;DHT22;25938;48.470;1.486;2022-12-07T18:41:49;11.80;61.90
39427;DHT22;25938;48.470;1.486;2022-12-07T18:44:15;11.90;61.90
39427;DHT22;25938;48.470;1.486;2022-12-07T18:46:41;12.00;61.90
39427;DHT22;25938;48.470;1.486;2022-12-07T18:49:10;12.10;61.90
39427;DHT22;25938;48.470;1.486;2022-12-07T18:51:36;12.10;62.00
39427;DHT22;25938;48.470;1.486;2022-12-07T18:54:02;12.20;62.00
39427;DHT22;25938;48.470;1.486;2022-12-07T18:56:29;12.20;62.00
39427;DHT22;25938;48.470;1.486;2022-12-07T18:58:58;12.20;62.00
39427;DHT22;25938;48.470;1.486;2022-12-07T19:01:45;12.30;62.10
39427;DHT22;25938;48.470;1.486;2022-12-07T19:04:11;12.30;62.20
39427;DHT22;25938;48.470;1.486;2022-12-07T19:06:37;12.40;62.30
39427;DHT22;25938;48.470;1.486;2022-12-07T19:09:03;12.40;62.30
39427;DHT22;25938;48.470;1.486;2022-12-07T19:11:31;12.40;62.30
39427;DHT22;25938;48.470;1.486;2022-12-07T19:16:57;12.40;62.50
39427;DHT22;25938;48.470;1.486;2022-12-07T19:19:35;12.50;62.60
39427;DHT22;25938;48.470;1.486;2022-12-07T19:22:01;12.50;62.60
39427;DHT22;25938;48.470;1.486;2022-12-07T19:24:28;12.40;62.60
39427;DHT22;25938;48.470;1.486;2022-12-07T19:26:53;12.50;62.70
39427;DHT22;25938;48.470;1.486;2022-12-07T19:29:19;12.50;62.70
39427;DHT22;25938;48.470;1.486;2022-12-07T19:31:45;12.50;62.70
39427;DHT22;25938;48.470;1.486;2022-12-07T19:34:12;12.50;62.70
39427;DHT22;25938;48.470;1.486;2022-12-07T19:36:40;12.50;62.70
39427;DHT22;25938;48.470;1.486;2022-12-07T19:39:06;12.50;62.80
39427;DHT22;25938;48.470;1.486;2022-12-07T19:41:32;12.50;62.80
39427;DHT22;25938;48.470;1.486;2022-12-07T19:46:38;12.60;62.90
39427;DHT22;25938;48.470;1.486;2022-12-07T19:49:03;12.60;63.00
39427;DHT22;25938;48.470;1.486;2022-12-07T19:51:30;12.50;62.90
39427;DHT22;25938;48.470;1.486;2022-12-07T19:53:58;12.50;62.90
39427;DHT22;25938;48.470;1.486;2022-12-07T19:56:24;12.60;63.00
39427;DHT22;25938;48.470;1.486;2022-12-07T19:58:50;12.60;63.10
39427;DHT22;25938;48.470;1.486;2022-12-07T20:01:16;12.60;63.10
39427;DHT22;25938;48.470;1.486;2022-12-07T20:03:42;12.60;63.10
39427;DHT22;25938;48.470;1.486;2022-12-07T20:06:17;12.60;63.10
39427;DHT22;25938;48.470;1.486;2022-12-07T20:08:45;12.60;63.10
39427;DHT22;25938;48.470;1.486;2022-12-07T20:11:11;12.60;63.10
39427;DHT22;25938;48.470;1.486;2022-12-07T20:13:55;12.60;63.10
39427;DHT22;25938;48.470;1.486;2022-12-07T20:16:21;12.60;63.10
39427;DHT22;25938;48.470;1.486;2022-12-07T20:18:47;12.60;63.10
39427;DHT22;25938;48.470;1.486;2022-12-07T20:21:13;12.60;63.10
39427;DHT22;25938;48.470;1.486;2022-12-07T20:23:39;12.60;63.10
39427;DHT22;25938;48.470;1.486;2022-12-07T20:26:07;12.60;63.10
39427;DHT22;25938;48.470;1.486;2022-12-07T20:28:33;12.60;63.20
39427;DHT22;25938;48.470;1.486;2022-12-07T20:30:59;12.60;63.20
39427;DHT22;25938;48.470;1.486;2022-12-07T20:33:25;12.60;63.20
39427;DHT22;25938;48.470;1.486;2022-12-07T20:35:51;12.60;63.10
39427;DHT22;25938;48.470;1.486;2022-12-07T20:38:16;12.60;63.20
39427;DHT22;25938;48.470;1.486;2022-12-07T20:40:46;12.60;63.20
39427;DHT22;25938;48.470;1.486;2022-12-07T20:43:12;12.60;63.20
39427;DHT22;25938;48.470;1.486;2022-12-07T20:45:48;12.60;63.20
39427;DHT22;25938;48.470;1.486;2022-12-07T20:48:14;12.60;63.20
39427;DHT22;25938;48.470;1.486;2022-12-07T20:50:40;12.60;63.20
39427;DHT22;25938;48.470;1.486;2022-12-07T20:53:06;12.60;63.10
39427;DHT22;25938;48.470;1.486;2022-12-07T20:55:31;12.60;63.10
39427;DHT22;25938;48.470;1.486;2022-12-07T20:57:58;12.60;63.10
39427;DHT22;25938;48.470;1.486;2022-12-07T21:00:23;12.60;63.10
39427;DHT22;25938;48.470;1.486;2022-12-07T21:02:50;12.60;63.10
39427;DHT22;25938;48.470;1.486;2022-12-07T21:05:16;12.60;63.10
39427;DHT22;25938;48.470;1.486;2022-12-07T21:07:43;12.60;63.10
39427;DHT22;25938;48.470;1.486;2022-12-07T21:10:09;12.60;63.10
39427;DHT22;25938;48.470;1.486;2022-12-07T21:12:35;12.60;63.10
39427;DHT22;25938;48.470;1.486;2022-12-07T21:15:01;12.60;63.00
39427;DHT22;25938;48.470;1.486;2022-12-07T21:17:26;12.60;63.00
39427;DHT22;25938;48.470;1.486;2022-12-07T21:19:52;12.50;62.90
39427;DHT22;25938;48.470;1.486;2022-12-07T21:22:17;12.60;62.90
39427;DHT22;25938;48.470;1.486;2022-12-07T21:24:43;12.60;62.80
39427;DHT22;25938;48.470;1.486;2022-12-07T21:27:09;12.60;62.80
39427;DHT22;25938;48.470;1.486;2022-12-07T21:29:34;12.60;62.80
39427;DHT22;25938;48.470;1.486;2022-12-07T21:32:01;12.60;62.80
39427;DHT22;25938;48.470;1.486;2022-12-07T21:34:26;12.50;62.70
39427;DHT22;25938;48.470;1.486;2022-12-07T21:36:52;12.60;62.80
39427;DHT22;25938;48.470;1.486;2022-12-07T21:39:18;12.60;62.80
39427;DHT22;25938;48.470;1.486;2022-12-07T21:41:43;12.60;62.70
39427;DHT22;25938;48.470;1.486;2022-12-07T21:44:09;12.60;62.70
39427;DHT22;25938;48.470;1.486;2022-12-07T21:46:35;12.60;62.70
39427;DHT22;25938;48.470;1.486;2022-12-07T21:49:07;12.60;62.70
39427;DHT22;25938;48.470;1.486;2022-12-07T21:51:34;12.60;62.70
39427;DHT22;25938;48.470;1.486;2022-12-07T21:54:02;12.60;62.70
39427;DHT22;25938;48.470;1.486;2022-12-07T21:56:34;12.60;62.60
39427;DHT22;25938;48.470;1.486;2022-12-07T21:59:02;12.60;62.70
39427;DHT22;25938;48.470;1.486;2022-12-07T22:01:29;12.60;62.60
39427;DHT22;25938;48.470;1.486;2022-12-07T22:03:58;12.60;62.70
39427;DHT22;25938;48.470;1.486;2022-12-07T22:06:24;12.60;62.70
39427;DHT22;25938;48.470;1.486;2022-12-07T22:08:51;12.60;62.70
39427;DHT22;25938;48.470;1.486;2022-12-07T22:11:17;12.60;62.70
39427;DHT22;25938;48.470;1.486;2022-12-07T22:13:44;12.60;62.60
39427;DHT22;25938;48.470;1.486;2022-12-07T22:16:29;12.60;62.60
39427;DHT22;25938;48.470;1.486;2022-12-07T22:18:55;12.60;62.60
39427;DHT22;25938;48.470;1.486;2022-12-07T22:21:24;12.60;62.60
39427;DHT22;25938;48.470;1.486;2022-12-07T22:23:50;12.60;62.70
39427;DHT22;25938;48.470;1.486;2022-12-07T22:26:16;12.60;62.70
39427;DHT22;25938;48.470;1.486;2022-12-07T22:28:43;12.60;62.70
39427;DHT22;25938;48.470;1.486;2022-12-07T22:31:11;12.60;62.70
39427;DHT22;25938;48.470;1.486;2022-12-07T22:33:54;12.60;62.70
39427;DHT22;25938;48.470;1.486;2022-12-07T22:36:19;12.60;62.70
39427;DHT22;25938;48.470;1.486;2022-12-07T22:38:46;12.60;62.60
39427;DHT22;25938;48.470;1.486;2022-12-07T22:41:18;12.60;62.60
39427;DHT22;25938;48.470;1.486;2022-12-07T22:43:45;12.60;62.70
39427;DHT22;25938;48.470;1.486;2022-12-07T22:46:11;12.60;62.60
39427;DHT22;25938;48.470;1.486;2022-12-07T22:48:36;12.60;62.70
39427;DHT22;25938;48.470;1.486;2022-12-07T22:51:02;12.60;62.70
39427;DHT22;25938;48.470;1.486;2022-12-07T22:53:27;12.60;62.70
39427;DHT22;25938;48.470;1.486;2022-12-07T22:55:53;12.60;62.70
39427;DHT22;25938;48.470;1.486;2022-12-07T22:58:19;12.60;62.70
39427;DHT22;25938;48.470;1.486;2022-12-07T23:00:45;12.60;62.70
39427;DHT22;25938;48.470;1.486;2022-12-07T23:03:10;12.60;62.70
39427;DHT22;25938;48.470;1.486;2022-12-07T23:05:47;12.60;62.80
39427;DHT22;25938;48.470;1.486;2022-12-07T23:08:13;12.60;62.80
39427;DHT22;25938;48.470;1.486;2022-12-07T23:10:47;12.60;62.80
39427;DHT22;25938;48.470;1.486;2022-12-07T23:13:15;12.60;62.90
39427;DHT22;25938;48.470;1.486;2022-12-07T23:16:00;12.60;62.90
39427;DHT22;25938;48.470;1.486;2022-12-07T23:18:26;12.60;62.90
39427;DHT22;25938;48.470;1.486;2022-12-07T23:20:54;12.60;63.00
39427;DHT22;25938;48.470;1.486;2022-12-07T23:23:20;12.60;63.00
39427;DHT22;25938;48.470;1.486;2022-12-07T23:25:46;12.60;63.00
39427;DHT22;25938;48.470;1.486;2022-12-07T23:28:11;12.60;63.00
39427;DHT22;25938;48.470;1.486;2022-12-07T23:30:37;12.60;63.00
39427;DHT22;25938;48.470;1.486;2022-12-07T23:33:03;12.60;63.10
39427;DHT22;25938;48.470;1.486;2022-12-07T23:35:28;12.60;63.10
39427;DHT22;25938;48.470;1.486;2022-12-07T23:37:54;12.60;63.10
39427;DHT22;25938;48.470;1.486;2022-12-07T23:40:19;12.60;63.10
39427;DHT22;25938;48.470;1.486;2022-12-07T23:42:45;12.60;63.20
39427;DHT22;25938;48.470;1.486;2022-12-07T23:45:11;12.60;63.20
39427;DHT22;25938;48.470;1.486;2022-12-07T23:47:36;12.60;63.20
39427;DHT22;25938;48.470;1.486;2022-12-07T23:50:02;12.60;63.30
39427;DHT22;25938;48.470;1.486;2022-12-07T23:52:29;12.60;63.30
39427;DHT22;25938;48.470;1.486;2022-12-07T23:54:55;12.60;63.30
39427;DHT22;25938;48.470;1.486;2022-12-07T23:57:20;12.60;63.30
39427;DHT22;25938;48.470;1.486;2022-12-07T23:59:46;12.60;63.40
